Time;durP1;ratioP1;P1;durP2;ratioP2;P2;SDS_P1;SDS_P2;PMS_P1;PMS_P2;Temp;Humidity;BMP_temperature;BMP_pressure;BME280_temperature;BME280_humidity;BME280_pressure;Samples;Min_cycle;Max_cycle;Signal;HPM_P1;HPM_P2
2021/12/30 00:01:21;;;;;;;1.55;1.45;;;;;;;-141.50;100.00;63355.56;5088224;28;20522;-79
2021/12/30 00:03:49;;;;;;;2.83;1.50;;;;;;;-141.50;100.00;63355.56;5086024;28;20411;-78
2021/12/30 00:06:18;;;;;;;2.30;1.30;;;;;;;-141.50;100.00;63355.56;5086422;28;20114;-80
2021/12/30 00:08:46;;;;;;;1.42;1.25;;;;;;;-141.50;100.00;63355.56;5088017;28;20108;-79
2021/12/30 00:11:13;;;;;;;1.80;1.17;;;;;;;-141.50;100.00;63355.56;5085776;28;20052;-78
2021/12/30 00:13:44;;;;;;;1.55;1.10;;;;;;;-141.50;100.00;63355.56;5087115;28;20450;-79
2021/12/30 00:16:13;;;;;;;2.55;1.10;;;;;;;-141.50;100.00;63355.56;5089050;28;20071;-78
2021/12/30 00:18:40;;;;;;;2.03;1.00;;;;;;;-141.50;100.00;63355.56;5085901;28;20052;-78
2021/12/30 00:21:07;;;;;;;2.20;1.00;;;;;;;-141.50;100.00;63355.56;5087829;28;20109;-77
2021/12/30 00:23:33;;;;;;;1.77;1.00;;;;;;;-141.50;100.00;63355.56;5086543;28;20055;-79
2021/12/30 00:26:00;;;;;;;1.30;0.90;;;;;;;-141.50;100.00;63355.56;5088002;28;20112;-79
2021/12/30 00:28:28;;;;;;;1.33;0.93;;;;;;;-141.50;100.00;63355.56;5087297;28;20090;-78
2021/12/30 00:30:55;;;;;;;1.42;0.90;;;;;;;-141.50;100.00;63355.56;5087706;28;20044;-79
2021/12/30 00:33:22;;;;;;;1.38;0.85;;;;;;;-141.50;100.00;63355.56;5085814;28;20056;-77
2021/12/30 00:35:50;;;;;;;2.03;0.88;;;;;;;-141.50;100.00;63355.56;5088752;28;20052;-79
2021/12/30 00:38:17;;;;;;;1.10;1.00;;;;;;;-141.50;100.00;63355.56;5086489;28;20040;-78
2021/12/30 00:40:44;;;;;;;1.30;0.95;;;;;;;-141.50;100.00;63355.56;5087959;28;20052;-78
2021/12/30 00:43:10;;;;;;;2.33;1.02;;;;;;;-141.50;100.00;63355.56;5105021;28;20035;-79
2021/12/30 00:45:37;;;;;;;2.88;1.33;;;;;;;-141.50;100.00;63355.56;5112845;28;20051;-81
2021/12/30 00:48:05;;;;;;;1.42;1.20;;;;;;;-141.50;100.00;63355.56;5081475;28;20072;-78
2021/12/30 00:50:33;;;;;;;2.42;1.60;;;;;;;-141.50;100.00;63355.56;5068972;28;20105;-79
2021/12/30 00:53:01;;;;;;;3.30;1.60;;;;;;;-141.50;100.00;63355.56;5070639;28;20162;-79
2021/12/30 00:55:27;;;;;;;2.13;1.58;;;;;;;-141.50;100.00;63355.56;5070070;28;20044;-79
2021/12/30 00:57:54;;;;;;;2.22;1.60;;;;;;;-141.50;100.00;63355.56;5070574;28;20087;-76
2021/12/30 01:00:21;;;;;;;2.25;1.83;;;;;;;-141.50;100.00;63355.56;5070002;28;20052;-78
2021/12/30 01:02:48;;;;;;;2.75;1.90;;;;;;;-141.50;100.00;63355.56;5071032;28;20048;-79
2021/12/30 01:05:15;;;;;;;2.60;2.00;;;;;;;-141.50;100.00;63355.56;5070448;28;20079;-79
2021/12/30 01:07:42;;;;;;;2.55;1.80;;;;;;;-141.50;100.00;63355.56;5069819;28;20423;-79
2021/12/30 01:10:11;;;;;;;2.10;1.58;;;;;;;-141.50;100.00;63355.56;5069840;28;20550;-77
2021/12/30 01:12:39;;;;;;;3.22;1.50;;;;;;;-141.50;100.00;63355.56;5070632;28;20492;-79
2021/12/30 01:15:10;;;;;;;1.85;1.40;;;;;;;-141.50;100.00;63355.56;5069425;28;20106;-78
2021/12/30 01:17:52;;;;;;;2.28;1.65;;;;;;;-141.50;100.00;63355.56;5068305;28;20106;-79
2021/12/30 01:20:20;;;;;;;3.95;2.20;;;;;;;-141.50;100.00;63355.56;5067069;28;20052;-77
2021/12/30 01:22:48;;;;;;;2.58;2.08;;;;;;;-141.50;100.00;63355.56;5070354;28;20048;-78
2021/12/30 01:25:16;;;;;;;3.58;2.10;;;;;;;-141.50;100.00;63355.56;5069631;28;20101;-78
2021/12/30 01:27:43;;;;;;;3.33;2.35;;;;;;;-141.50;100.00;63355.56;5069906;28;20052;-78
2021/12/30 01:30:17;;;;;;;3.75;2.42;;;;;;;-141.50;100.00;63355.56;5069151;28;20083;-79
2021/12/30 01:32:44;;;;;;;3.70;2.67;;;;;;;-141.50;100.00;63355.56;5070064;28;20076;-78
2021/12/30 01:35:15;;;;;;;4.57;2.58;;;;;;;-141.50;100.00;63355.56;5069916;28;20439;-79
2021/12/30 01:37:42;;;;;;;5.05;2.50;;;;;;;-141.50;100.00;63355.56;5070915;28;20048;-79
2021/12/30 01:40:12;;;;;;;5.15;3.88;;;;;;;-141.50;100.00;63355.56;5069456;28;20053;-77
2021/12/30 01:42:39;;;;;;;6.78;4.30;;;;;;;-141.50;100.00;63355.56;5068802;28;20082;-79
2021/12/30 01:45:07;;;;;;;6.55;4.72;;;;;;;-141.50;100.00;63355.56;5069740;28;20085;-79
2021/12/30 01:47:34;;;;;;;10.25;6.57;;;;;;;-141.50;100.00;63355.56;5069575;28;20596;-81
2021/12/30 01:50:04;;;;;;;11.35;7.45;;;;;;;-141.50;100.00;63355.56;5066971;28;20462;-79
2021/12/30 01:52:30;;;;;;;12.05;8.23;;;;;;;-141.50;100.00;63355.56;5070088;28;20057;-81
2021/12/30 01:54:57;;;;;;;10.93;7.78;;;;;;;-141.50;100.00;63355.56;5069977;28;20052;-79
2021/12/30 01:57:23;;;;;;;10.45;7.70;;;;;;;-141.50;100.00;63355.56;5069221;28;20113;-80
2021/12/30 01:59:50;;;;;;;9.02;6.90;;;;;;;-141.50;100.00;63355.56;5069719;28;20048;-79
2021/12/30 02:02:17;;;;;;;8.00;6.22;;;;;;;-141.50;100.00;63355.56;5068951;28;20590;-80
2021/12/30 02:04:44;;;;;;;7.75;5.95;;;;;;;-141.50;100.00;63355.56;5067836;28;20550;-80
2021/12/30 02:07:10;;;;;;;6.30;4.80;;;;;;;-141.50;100.00;63355.56;5070111;28;20057;-79
2021/12/30 02:09:37;;;;;;;6.13;4.07;;;;;;;-141.50;100.00;63355.56;5070288;28;20056;-80
2021/12/30 02:12:05;;;;;;;4.65;3.53;;;;;;;-141.50;100.00;63355.56;5069948;28;20083;-78
2021/12/30 02:14:36;;;;;;;3.13;2.17;;;;;;;-141.50;100.00;63355.56;5068634;28;20064;-79
2021/12/30 02:17:04;;;;;;;2.20;1.80;;;;;;;-141.50;100.00;63355.56;5068483;28;20056;-78
2021/12/30 02:19:31;;;;;;;2.63;1.67;;;;;;;-141.50;100.00;63355.56;5069768;28;20075;-80
2021/12/30 02:21:57;;;;;;;1.40;1.25;;;;;;;-141.50;100.00;63355.56;5078518;28;20052;-79
2021/12/30 02:24:24;;;;;;;2.33;1.30;;;;;;;-141.50;100.00;63355.56;5089941;28;20586;-77
2021/12/30 02:26:51;;;;;;;1.20;0.95;;;;;;;-141.50;100.00;63355.56;5093025;28;20052;-78
2021/12/30 02:29:18;;;;;;;2.15;1.13;;;;;;;-141.50;100.00;63355.56;5091594;28;20480;-79
2021/12/30 02:31:46;;;;;;;3.22;0.90;;;;;;;-141.50;100.00;63355.56;5091588;28;20076;-78
2021/12/30 02:34:12;;;;;;;2.08;0.60;;;;;;;-141.50;100.00;63355.56;5077553;28;20045;-78
2021/12/30 02:36:46;;;;;;;2.00;0.60;;;;;;;-141.50;100.00;63355.56;5073789;28;20067;-78
2021/12/30 02:39:14;;;;;;;1.40;0.50;;;;;;;-141.50;100.00;63355.56;5072690;28;20040;-78
2021/12/30 02:41:41;;;;;;;0.85;0.60;;;;;;;-141.50;100.00;63355.56;5073074;28;20570;-77
2021/12/30 02:44:09;;;;;;;1.15;0.80;;;;;;;-141.50;100.00;63355.56;5071001;28;20462;-78
2021/12/30 02:46:37;;;;;;;1.75;0.55;;;;;;;-141.50;100.00;63355.56;5071316;28;20593;-78
2021/12/30 02:49:05;;;;;;;3.88;0.98;;;;;;;-141.50;100.00;63355.56;5071881;28;20068;-79
2021/12/30 02:51:32;;;;;;;2.03;0.90;;;;;;;-141.50;100.00;63355.56;5072023;28;20045;-79
2021/12/30 02:53:59;;;;;;;3.60;1.20;;;;;;;-141.50;100.00;63355.56;5072217;28;20433;-79
2021/12/30 02:56:27;;;;;;;1.60;0.95;;;;;;;-141.50;100.00;63355.56;5071683;28;20048;-78
2021/12/30 02:58:54;;;;;;;1.02;0.75;;;;;;;-141.50;100.00;63355.56;5072218;28;20105;-78
2021/12/30 03:01:32;;;;;;;1.90;1.10;;;;;;;-141.50;100.00;63355.56;5072298;28;20048;-79
2021/12/30 03:04:02;;;;;;;2.42;1.15;;;;;;;-141.50;100.00;63355.56;5071238;28;20052;-79
2021/12/30 03:06:30;;;;;;;2.45;1.00;;;;;;;-141.50;100.00;63355.56;5073592;28;20598;-79
2021/12/30 03:08:57;;;;;;;1.90;1.30;;;;;;;-141.50;100.00;63355.56;5070627;28;20048;-78
2021/12/30 03:11:26;;;;;;;1.20;0.90;;;;;;;-141.50;100.00;63355.56;5071474;28;20074;-77
2021/12/30 03:13:54;;;;;;;1.50;1.00;;;;;;;-141.50;100.00;63355.56;5072186;28;20059;-79
2021/12/30 03:16:24;;;;;;;2.67;1.30;;;;;;;-141.50;100.00;63355.56;5071482;28;20485;-78
2021/12/30 03:18:52;;;;;;;2.55;1.17;;;;;;;-141.50;100.00;63355.56;5068764;28;20048;-80
2021/12/30 03:21:21;;;;;;;1.60;1.10;;;;;;;-141.50;100.00;63355.56;5071733;28;20328;-79
2021/12/30 03:23:49;;;;;;;2.80;1.40;;;;;;;-141.50;100.00;63355.56;5071239;28;20106;-78
2021/12/30 03:26:15;;;;;;;4.80;1.50;;;;;;;-141.50;100.00;63355.56;5073515;28;20052;-78
2021/12/30 03:28:43;;;;;;;2.33;1.38;;;;;;;-141.50;100.00;63355.56;5072980;28;20089;-79
2021/12/30 03:31:12;;;;;;;3.40;1.60;;;;;;;-141.50;100.00;63355.56;5073133;28;20073;-79
2021/12/30 03:33:40;;;;;;;2.95;1.63;;;;;;;-141.50;100.00;63355.56;5070169;28;20056;-80
2021/12/30 03:36:08;;;;;;;3.03;1.80;;;;;;;-141.50;100.00;63355.56;5073664;28;20045;-80
2021/12/30 03:38:37;;;;;;;2.88;2.00;;;;;;;-141.50;100.00;63355.56;5073594;28;20056;-80
2021/12/30 03:41:06;;;;;;;3.70;1.77;;;;;;;-141.50;100.00;63355.56;5072313;28;20056;-80
2021/12/30 03:43:33;;;;;;;6.53;2.08;;;;;;;-141.50;100.00;63355.56;5072969;28;20044;-79
2021/12/30 03:46:01;;;;;;;4.57;1.98;;;;;;;-141.50;100.00;63355.56;5073027;28;20048;-79
2021/12/30 03:48:33;;;;;;;3.33;1.73;;;;;;;-141.50;100.00;63355.56;5072325;28;20052;-78
2021/12/30 03:51:05;;;;;;;3.65;1.83;;;;;;;-141.50;100.00;63355.56;5073424;28;20063;-79
2021/12/30 03:53:38;;;;;;;4.20;1.45;;;;;;;-141.50;100.00;63355.56;5074089;28;20049;-79
2021/12/30 03:56:06;;;;;;;2.88;1.40;;;;;;;-141.50;100.00;63355.56;5074257;28;20143;-80
2021/12/30 03:58:32;;;;;;;4.05;1.38;;;;;;;-141.50;100.00;63355.56;5092497;28;20036;-80
2021/12/30 04:00:59;;;;;;;3.15;1.50;;;;;;;-141.50;100.00;63355.56;5096558;28;20068;-79
2021/12/30 04:03:26;;;;;;;4.40;1.60;;;;;;;-141.50;100.00;63355.56;5080593;28;20059;-78
2021/12/30 04:05:53;;;;;;;1.95;1.25;;;;;;;-141.50;100.00;63355.56;5072220;28;20546;-79
2021/12/30 04:08:19;;;;;;;3.10;1.70;;;;;;;-141.50;100.00;63355.56;5072485;28;20504;-78
2021/12/30 04:10:46;;;;;;;6.35;1.58;;;;;;;-141.50;100.00;63355.56;5071591;28;20045;-79
2021/12/30 04:13:13;;;;;;;2.97;1.35;;;;;;;-141.50;100.00;63355.56;5071917;28;20036;-79
2021/12/30 04:15:40;;;;;;;2.58;1.40;;;;;;;-141.50;100.00;63355.56;5071693;28;20044;-79
2021/12/30 04:18:07;;;;;;;4.53;1.33;;;;;;;-141.50;100.00;63355.56;5070236;28;20080;-78
2021/12/30 04:20:33;;;;;;;4.15;1.55;;;;;;;-141.50;100.00;63355.56;5072380;28;20075;-80
2021/12/30 04:23:00;;;;;;;3.55;1.75;;;;;;;-141.50;100.00;63355.56;5072939;28;20110;-79
2021/12/30 04:25:26;;;;;;;4.95;1.50;;;;;;;-141.50;100.00;63355.56;5070283;28;20057;-78
2021/12/30 04:27:53;;;;;;;5.82;1.63;;;;;;;-141.50;100.00;63355.56;5070443;28;20094;-79
2021/12/30 04:30:19;;;;;;;5.70;1.70;;;;;;;-141.50;100.00;63355.56;5067596;28;20076;-78
2021/12/30 04:32:48;;;;;;;3.22;1.48;;;;;;;-141.50;100.00;63355.56;5077588;28;20052;-79
2021/12/30 04:35:15;;;;;;;4.00;1.85;;;;;;;-141.50;100.00;63355.56;5051495;28;20098;-78
2021/12/30 04:37:42;;;;;;;3.22;1.65;;;;;;;-141.50;100.00;63355.56;5070354;28;20076;-78
2021/12/30 04:40:09;;;;;;;4.75;1.55;;;;;;;-141.50;100.00;63355.56;5069711;28;20514;-78
2021/12/30 04:42:36;;;;;;;4.10;1.38;;;;;;;-141.50;100.00;63355.56;5088166;28;20087;-78
2021/12/30 04:45:06;;;;;;;3.15;1.35;;;;;;;-141.50;100.00;63355.56;5088427;28;20078;-78
2021/12/30 04:47:33;;;;;;;4.40;1.35;;;;;;;-141.50;100.00;63355.56;5093137;28;20043;-77
2021/12/30 04:49:59;;;;;;;4.95;1.40;;;;;;;-141.50;100.00;63355.56;5095286;28;20048;-78
2021/12/30 04:52:27;;;;;;;5.78;1.60;;;;;;;-141.50;100.00;63355.56;5091862;28;20111;-77
2021/12/30 04:54:53;;;;;;;4.72;1.30;;;;;;;-141.50;100.00;63355.56;5097044;28;20067;-79
2021/12/30 04:57:20;;;;;;;3.03;1.38;;;;;;;-141.50;100.00;63355.56;5090291;28;20122;-77
2021/12/30 04:59:46;;;;;;;2.90;1.42;;;;;;;-141.50;100.00;63355.56;5088806;28;20102;-78
2021/12/30 05:02:13;;;;;;;4.60;1.42;;;;;;;-141.50;100.00;63355.56;5089013;28;20052;-78
2021/12/30 05:04:40;;;;;;;5.47;1.75;;;;;;;-141.50;100.00;63355.56;5089813;28;20087;-78
2021/12/30 05:07:07;;;;;;;4.00;1.60;;;;;;;-141.50;100.00;63355.56;5090116;28;20051;-78
2021/12/30 05:09:33;;;;;;;4.78;1.75;;;;;;;-141.50;100.00;63355.56;5089334;28;20094;-76
2021/12/30 05:12:00;;;;;;;7.05;1.63;;;;;;;-141.50;100.00;63355.56;5090122;28;20059;-78
2021/12/30 05:14:26;;;;;;;4.13;1.60;;;;;;;-141.50;100.00;63355.56;5090511;28;20052;-78
2021/12/30 05:16:55;;;;;;;4.50;1.75;;;;;;;-141.50;100.00;63355.56;5089556;28;20064;-78
2021/12/30 05:19:21;;;;;;;2.85;1.60;;;;;;;-141.50;100.00;63355.56;5090000;28;20047;-77
2021/12/30 05:21:49;;;;;;;4.10;2.00;;;;;;;-141.50;100.00;63355.56;5089648;28;20142;-79
2021/12/30 05:24:15;;;;;;;5.55;1.75;;;;;;;-141.50;100.00;63355.56;5090639;28;20044;-77
2021/12/30 05:26:42;;;;;;;6.35;1.90;;;;;;;-141.50;100.00;63355.56;5091279;28;20048;-77
2021/12/30 05:29:09;;;;;;;5.28;2.22;;;;;;;-141.50;100.00;63355.56;5090226;28;20044;-78
2021/12/30 05:31:36;;;;;;;7.63;2.28;;;;;;;-141.50;100.00;63355.56;5089782;28;20048;-78
2021/12/30 05:34:02;;;;;;;6.95;2.15;;;;;;;-141.50;100.00;63355.56;5089232;28;20159;-78
2021/12/30 05:36:29;;;;;;;6.22;2.30;;;;;;;-141.50;100.00;63355.56;5091245;28;20074;-78
2021/12/30 05:38:55;;;;;;;5.57;1.95;;;;;;;-141.50;100.00;63355.56;5090372;28;20059;-77
2021/12/30 05:41:25;;;;;;;8.48;2.50;;;;;;;-141.50;100.00;63355.56;5088760;28;20044;-78
2021/12/30 05:43:52;;;;;;;5.07;2.05;;;;;;;-141.50;100.00;63355.56;5089296;28;20052;-78
2021/12/30 05:46:19;;;;;;;8.50;2.13;;;;;;;-141.50;100.00;63355.56;5087807;28;20056;-78
2021/12/30 05:48:46;;;;;;;5.53;2.10;;;;;;;-141.50;100.00;63355.56;5087961;28;20056;-77
2021/12/30 05:51:15;;;;;;;5.30;2.22;;;;;;;-141.50;100.00;63355.56;5090275;28;20775;-80
2021/12/30 05:53:42;;;;;;;4.53;2.50;;;;;;;-141.50;100.00;63355.56;5094449;28;20055;-79
2021/12/30 05:56:08;;;;;;;7.47;2.38;;;;;;;-141.50;100.00;63355.56;5093022;28;20097;-79
2021/12/30 05:58:35;;;;;;;6.82;2.63;;;;;;;-141.50;100.00;63355.56;5093986;28;20484;-79
2021/12/30 06:01:02;;;;;;;6.40;2.83;;;;;;;-141.50;100.00;63355.56;5083464;28;20097;-79
2021/12/30 06:03:28;;;;;;;9.88;2.53;;;;;;;-141.50;100.00;63355.56;5090309;28;20048;-78
2021/12/30 06:05:55;;;;;;;9.05;2.70;;;;;;;-141.50;100.00;63355.56;5089218;28;20411;-78
2021/12/30 06:08:21;;;;;;;7.25;2.50;;;;;;;-141.50;100.00;63355.56;5090769;28;20067;-78
2021/12/30 06:10:48;;;;;;;6.43;2.60;;;;;;;-141.50;100.00;63355.56;5089913;28;20102;-78
2021/12/30 06:13:14;;;;;;;9.35;3.42;;;;;;;-141.50;100.00;63355.56;5090755;28;20048;-78
2021/12/30 06:15:41;;;;;;;11.80;3.65;;;;;;;-141.50;100.00;63355.56;5089941;28;20044;-78
2021/12/30 06:18:07;;;;;;;12.57;3.60;;;;;;;-141.50;100.00;63355.56;5089024;28;20044;-78
2021/12/30 06:20:34;;;;;;;7.88;3.70;;;;;;;-141.50;100.00;63355.56;5088504;28;20723;-77
2021/12/30 06:23:01;;;;;;;8.23;3.15;;;;;;;-141.50;100.00;63355.56;5089051;28;20052;-77
2021/12/30 06:25:28;;;;;;;11.63;3.58;;;;;;;-141.50;100.00;63355.56;5089048;28;20052;-78
2021/12/30 06:27:55;;;;;;;13.55;4.00;;;;;;;-141.50;100.00;63355.56;5089395;28;20059;-79
2021/12/30 06:30:22;;;;;;;10.05;3.60;;;;;;;-141.50;100.00;63355.56;5087431;28;20385;-75
2021/12/30 06:32:49;;;;;;;9.50;3.35;;;;;;;-141.50;100.00;63355.56;5088140;28;20430;-79
2021/12/30 06:35:15;;;;;;;10.88;3.92;;;;;;;-141.50;100.00;63355.56;5088986;28;20052;-77
2021/12/30 06:37:42;;;;;;;11.07;3.30;;;;;;;-141.50;100.00;63355.56;5090473;28;20142;-77
2021/12/30 06:40:11;;;;;;;10.23;3.60;;;;;;;-141.50;100.00;63355.56;5088704;28;20476;-77
2021/12/30 06:42:41;;;;;;;14.38;3.70;;;;;;;-141.50;100.00;63355.56;5088026;28;20103;-77
2021/12/30 06:45:07;;;;;;;11.32;4.32;;;;;;;-141.50;100.00;63355.56;5091760;28;20145;-78
2021/12/30 06:47:40;;;;;;;8.77;4.88;;;;;;;-141.50;100.00;63355.56;5091895;28;20094;-78
2021/12/30 06:50:08;;;;;;;15.25;4.88;;;;;;;-141.50;100.00;63355.56;5089168;28;20051;-78
2021/12/30 06:52:34;;;;;;;12.40;4.82;;;;;;;-141.50;100.00;63355.56;5089325;28;20129;-78
2021/12/30 06:55:01;;;;;;;15.75;4.97;;;;;;;-141.50;100.00;63355.56;5089915;28;20458;-78
2021/12/30 06:57:28;;;;;;;13.00;4.47;;;;;;;-141.50;100.00;63355.56;5082658;28;20505;-78
2021/12/30 06:59:55;;;;;;;12.13;4.60;;;;;;;-141.50;100.00;63355.56;5083926;28;20090;-77
2021/12/30 07:02:23;;;;;;;14.45;4.20;;;;;;;-141.50;100.00;63355.56;5088721;28;20060;-77
2021/12/30 07:04:49;;;;;;;10.85;4.40;;;;;;;-141.50;100.00;63355.56;5085942;28;20075;-78
2021/12/30 07:07:16;;;;;;;12.00;3.80;;;;;;;-141.50;100.00;63355.56;5089843;28;20504;-78
2021/12/30 07:09:43;;;;;;;13.15;4.65;;;;;;;-141.50;100.00;63355.56;5090541;28;20052;-77
2021/12/30 07:12:09;;;;;;;13.70;4.97;;;;;;;-141.50;100.00;63355.56;5095662;28;20052;-78
2021/12/30 07:14:36;;;;;;;12.98;4.40;;;;;;;-141.50;100.00;63355.56;5096756;28;20090;-78
2021/12/30 07:17:02;;;;;;;17.77;4.90;;;;;;;-141.50;100.00;63355.56;5110351;28;20052;-78
2021/12/30 07:19:29;;;;;;;15.32;4.25;;;;;;;-141.50;100.00;63355.56;5108676;28;20047;-78
2021/12/30 07:21:56;;;;;;;11.55;3.88;;;;;;;-141.50;100.00;63355.56;5089009;28;20044;-77
2021/12/30 07:24:22;;;;;;;12.05;3.67;;;;;;;-141.50;100.00;63355.56;5089548;28;20080;-77
2021/12/30 07:26:50;;;;;;;12.02;4.25;;;;;;;-141.50;100.00;63355.56;5087173;28;20079;-78
2021/12/30 07:29:17;;;;;;;12.73;4.25;;;;;;;-141.50;100.00;63355.56;5088114;28;20075;-78
2021/12/30 07:31:44;;;;;;;14.85;4.13;;;;;;;-141.50;100.00;63355.56;5086900;28;20052;-77
2021/12/30 07:34:11;;;;;;;17.38;4.82;;;;;;;-141.50;100.00;63355.56;5088199;28;20097;-78
2021/12/30 07:36:37;;;;;;;11.75;4.90;;;;;;;-141.50;100.00;63355.56;5089204;28;20390;-77
2021/12/30 07:39:05;;;;;;;11.82;4.20;;;;;;;-141.50;100.00;63355.56;5088789;28;20048;-78
2021/12/30 07:41:32;;;;;;;11.88;4.97;;;;;;;-141.50;100.00;63355.56;5086634;28;20124;-78
2021/12/30 07:43:58;;;;;;;11.63;5.15;;;;;;;-141.50;100.00;63355.56;5087327;28;20056;-78
2021/12/30 07:46:25;;;;;;;14.10;4.78;;;;;;;-141.50;100.00;63355.56;5088789;28;20056;-78
2021/12/30 07:48:51;;;;;;;12.60;4.30;;;;;;;-141.50;100.00;63355.56;5086531;28;20113;-78
2021/12/30 07:51:18;;;;;;;13.90;5.00;;;;;;;-141.50;100.00;63355.56;5089364;28;20081;-78
2021/12/30 07:53:44;;;;;;;12.50;5.22;;;;;;;-141.50;100.00;63355.56;5089363;28;20109;-78
2021/12/30 07:56:11;;;;;;;12.50;4.78;;;;;;;-141.50;100.00;63355.56;5085255;28;20102;-79
2021/12/30 07:58:37;;;;;;;12.23;4.63;;;;;;;-141.50;100.00;63355.56;5086208;28;20407;-78
2021/12/30 08:01:04;;;;;;;11.43;4.20;;;;;;;-141.50;100.00;63355.56;5083607;28;20071;-78
2021/12/30 08:03:31;;;;;;;14.65;4.20;;;;;;;-141.50;100.00;63355.56;5085818;28;20056;-78
2021/12/30 08:05:58;;;;;;;16.58;5.00;;;;;;;-141.50;100.00;63355.56;5085996;28;20087;-78
2021/12/30 08:08:24;;;;;;;18.42;5.40;;;;;;;-141.50;100.00;63355.56;5087802;28;20102;-78
2021/12/30 08:10:51;;;;;;;13.38;5.00;;;;;;;-141.50;100.00;63355.56;5086426;28;20691;-78
2021/12/30 08:13:19;;;;;;;13.10;4.47;;;;;;;-141.50;100.00;63355.56;5087551;28;20415;-78
2021/12/30 08:15:46;;;;;;;17.30;5.00;;;;;;;-141.50;100.00;63355.56;5087008;28;20082;-78
2021/12/30 08:18:13;;;;;;;16.52;5.13;;;;;;;-141.50;100.00;63355.56;5087431;28;20060;-78
2021/12/30 08:20:40;;;;;;;15.15;4.57;;;;;;;-141.50;100.00;63355.56;5086209;28;20044;-78
2021/12/30 08:23:07;;;;;;;15.52;4.40;;;;;;;-141.50;100.00;63355.56;5088689;28;20121;-78
2021/12/30 08:25:33;;;;;;;21.02;4.90;;;;;;;-141.50;100.00;63355.56;5086542;28;20128;-78
2021/12/30 08:28:00;;;;;;;15.93;4.72;;;;;;;-141.50;100.00;63355.56;5087751;28;20541;-78
2021/12/30 08:30:27;;;;;;;26.55;6.13;;;;;;;-141.50;100.00;63355.56;5086333;28;20059;-77
2021/12/30 08:32:54;;;;;;;11.88;4.25;;;;;;;-141.50;100.00;63355.56;5087999;28;20058;-78
2021/12/30 08:35:23;;;;;;;16.73;4.65;;;;;;;-141.50;100.00;63355.56;5083600;28;20189;-78
2021/12/30 08:37:54;;;;;;;11.98;4.18;;;;;;;-141.50;100.00;63355.56;5086308;28;20101;-78
2021/12/30 08:40:21;;;;;;;20.88;4.70;;;;;;;-141.50;100.00;63355.56;5084789;28;20456;-77
2021/12/30 08:42:48;;;;;;;18.23;4.47;;;;;;;-141.50;100.00;63355.56;5085390;28;20060;-77
2021/12/30 08:45:14;;;;;;;18.58;4.30;;;;;;;-141.50;100.00;63355.56;5085978;28;20056;-78
2021/12/30 08:47:43;;;;;;;20.50;4.30;;;;;;;-141.50;100.00;63355.56;5086688;28;20684;-78
2021/12/30 08:50:13;;;;;;;15.70;3.97;;;;;;;-141.50;100.00;63355.56;5084966;28;20536;-78
2021/12/30 08:52:42;;;;;;;13.77;3.40;;;;;;;-141.50;100.00;63355.56;5084194;28;20067;-77
2021/12/30 08:55:11;;;;;;;13.23;3.50;;;;;;;-141.50;100.00;63355.56;5084873;28;20511;-77
2021/12/30 08:57:40;;;;;;;16.77;3.58;;;;;;;-141.50;100.00;63355.56;5085859;28;20527;-78
2021/12/30 09:00:12;;;;;;;14.93;3.30;;;;;;;-141.50;100.00;63355.56;5081570;28;20556;-77
2021/12/30 09:02:40;;;;;;;14.68;3.35;;;;;;;-141.50;100.00;63355.56;5068501;28;20459;-78
2021/12/30 09:05:07;;;;;;;14.25;3.65;;;;;;;-141.50;100.00;63355.56;5061944;28;20113;-77
2021/12/30 09:07:34;;;;;;;19.17;3.58;;;;;;;-141.50;100.00;63355.56;5063521;28;20456;-78
2021/12/30 09:10:00;;;;;;;19.67;3.60;;;;;;;-141.50;100.00;63355.56;5064676;28;20079;-78
2021/12/30 09:12:27;;;;;;;15.95;3.22;;;;;;;-141.50;100.00;63355.56;5065409;28;20491;-78
2021/12/30 09:15:15;;;;;;;15.23;3.80;;;;;;;-141.50;100.00;63355.56;5063078;28;20048;-78
2021/12/30 09:17:45;;;;;;;17.98;3.03;;;;;;;-141.50;100.00;63355.56;5063750;28;20053;-77
2021/12/30 09:20:12;;;;;;;13.75;3.45;;;;;;;-141.50;100.00;63355.56;5062472;28;20088;-78
2021/12/30 09:22:38;;;;;;;16.05;3.35;;;;;;;-141.50;100.00;63355.56;5066144;28;20087;-77
2021/12/30 09:25:08;;;;;;;18.13;3.17;;;;;;;-141.50;100.00;63355.56;5075617;28;20101;-78
2021/12/30 09:27:40;;;;;;;14.10;2.70;;;;;;;-141.50;100.00;63355.56;5085306;28;20051;-77
2021/12/30 09:30:11;;;;;;;14.52;3.45;;;;;;;-141.50;100.00;63355.56;5087171;28;20584;-78
2021/12/30 09:32:39;;;;;;;14.77;3.25;;;;;;;-141.50;100.00;63355.56;5088730;28;20048;-78
2021/12/30 09:35:06;;;;;;;16.23;3.70;;;;;;;-141.50;100.00;63355.56;5089730;28;20078;-78
2021/12/30 09:37:33;;;;;;;15.82;3.08;;;;;;;-141.50;100.00;63355.56;5090014;28;20056;-78
2021/12/30 09:39:59;;;;;;;17.25;3.05;;;;;;;-141.50;100.00;63355.56;5087749;28;20052;-78
2021/12/30 09:42:26;;;;;;;11.45;3.05;;;;;;;-141.50;100.00;63355.56;5088304;28;20073;-78
2021/12/30 09:44:54;;;;;;;17.17;2.95;;;;;;;-141.50;100.00;63355.56;5089060;28;20475;-77
2021/12/30 09:47:20;;;;;;;11.25;2.47;;;;;;;-141.50;100.00;63355.56;5087713;28;20067;-79
2021/12/30 09:49:50;;;;;;;12.55;2.92;;;;;;;-141.50;100.00;63355.56;5088609;28;20319;-78
2021/12/30 09:52:17;;;;;;;12.23;2.60;;;;;;;-141.50;100.00;63355.56;5089653;28;20048;-78
2021/12/30 09:54:44;;;;;;;8.60;2.60;;;;;;;-141.50;100.00;63355.56;5088569;28;20075;-78
2021/12/30 09:57:11;;;;;;;8.70;2.20;;;;;;;-141.50;100.00;63355.56;5088474;28;20563;-78
2021/12/30 09:59:37;;;;;;;13.60;2.92;;;;;;;-141.50;100.00;63355.56;5088548;28;20302;-78
2021/12/30 10:02:04;;;;;;;15.07;2.63;;;;;;;-141.50;100.00;63355.56;5080712;28;20400;-77
2021/12/30 10:04:34;;;;;;;10.32;2.03;;;;;;;-141.50;100.00;63355.56;5098192;28;20423;-78
2021/12/30 10:07:02;;;;;;;9.02;1.95;;;;;;;-141.50;100.00;63355.56;5109648;28;20051;-77
2021/12/30 10:09:49;;;;;;;8.45;2.00;;;;;;;-141.50;100.00;63355.56;5108814;28;20055;-78
2021/12/30 10:12:33;;;;;;;10.00;2.35;;;;;;;-141.50;100.00;63355.56;5108720;28;20055;-78
2021/12/30 10:15:00;;;;;;;13.45;2.08;;;;;;;-141.50;100.00;63355.56;5107483;28;20365;-78
2021/12/30 10:17:28;;;;;;;9.23;2.33;;;;;;;-141.50;100.00;63355.56;5108344;28;20602;-77
2021/12/30 10:20:13;;;;;;;12.18;2.10;;;;;;;-141.50;100.00;63355.56;5106166;28;20146;-77
2021/12/30 10:22:39;;;;;;;5.63;1.70;;;;;;;-141.50;100.00;63355.56;5109420;28;20067;-78
2021/12/30 10:25:37;;;;;;;14.93;2.10;;;;;;;-141.50;100.00;63355.56;5108624;28;20214;-78
2021/12/30 10:28:24;;;;;;;10.38;2.35;;;;;;;-141.50;100.00;63355.56;5106464;28;20596;-77
2021/12/30 10:30:57;;;;;;;8.15;1.83;;;;;;;-141.50;100.00;63355.56;5106421;28;20091;-77
2021/12/30 10:33:27;;;;;;;6.90;1.75;;;;;;;-141.50;100.00;63355.56;5115751;28;20048;-77
2021/12/30 10:35:55;;;;;;;14.52;2.63;;;;;;;-141.50;100.00;63355.56;5114490;28;20032;-78
2021/12/30 10:38:27;;;;;;;9.30;2.00;;;;;;;-141.50;100.00;63355.56;5094796;28;20272;-77
2021/12/30 10:40:58;;;;;;;6.57;1.85;;;;;;;-141.50;100.00;63355.56;5084133;28;20144;-78
2021/12/30 10:43:31;;;;;;;8.82;1.90;;;;;;;-141.50;100.00;63355.56;5088174;28;20189;-78
2021/12/30 10:46:11;;;;;;;10.40;2.05;;;;;;;-141.50;100.00;63355.56;5086937;28;20105;-78
2021/12/30 10:48:55;;;;;;;5.00;1.65;;;;;;;-141.50;100.00;63355.56;5070340;28;20056;-78
2021/12/30 10:51:34;;;;;;;6.30;1.13;;;;;;;-141.50;100.00;63355.56;5089282;28;20105;-78
2021/12/30 10:54:23;;;;;;;7.72;1.63;;;;;;;-141.50;100.00;63355.56;5088048;28;20109;-77
2021/12/30 10:57:00;;;;;;;7.88;1.65;;;;;;;-141.50;100.00;63355.56;5067113;28;20072;-77
2021/12/30 10:59:34;;;;;;;7.45;1.73;;;;;;;-141.50;100.00;63355.56;5067677;28;20117;-77
2021/12/30 11:02:05;;;;;;;9.30;2.05;;;;;;;-141.50;100.00;63355.56;5066533;28;20504;-77
2021/12/30 11:04:39;;;;;;;4.05;1.15;;;;;;;-141.50;100.00;63355.56;5066417;28;20060;-77
2021/12/30 11:07:08;;;;;;;6.47;1.55;;;;;;;-141.50;100.00;63355.56;5065743;28;20118;-77
2021/12/30 11:09:35;;;;;;;4.32;1.30;;;;;;;-141.50;100.00;63355.56;5065674;28;20122;-77
2021/12/30 11:12:06;;;;;;;9.93;1.80;;;;;;;-141.50;100.00;63355.56;5066100;28;20676;-77